sensor_id;sensor_type;location;lat;lon;timestamp;P1;durP1;ratioP1;P2;durP2;ratioP2
78893;SDS011;68282;42.698;23.350;2023-07-13T00:00:17;7.65;;;5.05;;
78893;SDS011;68282;42.698;23.350;2023-07-13T00:02:43;8.82;;;5.40;;
78893;SDS011;68282;42.698;23.350;2023-07-13T00:05:09;7.28;;;4.97;;
78893;SDS011;68282;42.698;23.350;2023-07-13T00:07:35;11.93;;;5.80;;
78893;SDS011;68282;42.698;23.350;2023-07-13T00:10:01;12.00;;;5.00;;
78893;SDS011;68282;42.698;23.350;2023-07-13T00:12:29;7.55;;;4.80;;
78893;SDS011;68282;42.698;23.350;2023-07-13T00:14:58;9.73;;;5.43;;
78893;SDS011;68282;42.698;23.350;2023-07-13T00:17:25;5.93;;;4.68;;
78893;SDS011;68282;42.698;23.350;2023-07-13T00:19:51;9.23;;;5.10;;
78893;SDS011;68282;42.698;23.350;2023-07-13T00:22:17;13.20;;;5.78;;
78893;SDS011;68282;42.698;23.350;2023-07-13T00:24:43;10.27;;;5.85;;
78893;SDS011;68282;42.698;23.350;2023-07-13T00:27:09;7.25;;;5.35;;
78893;SDS011;68282;42.698;23.350;2023-07-13T00:29:35;9.25;;;5.78;;
78893;SDS011;68282;42.698;23.350;2023-07-13T00:32:05;7.85;;;6.07;;
78893;SDS011;68282;42.698;23.350;2023-07-13T00:34:31;9.52;;;5.53;;
78893;SDS011;68282;42.698;23.350;2023-07-13T00:36:57;7.32;;;5.68;;
78893;SDS011;68282;42.698;23.350;2023-07-13T00:39:22;10.50;;;6.28;;
78893;SDS011;68282;42.698;23.350;2023-07-13T00:41:48;7.38;;;5.32;;
78893;SDS011;68282;42.698;23.350;2023-07-13T00:44:14;10.77;;;5.75;;
78893;SDS011;68282;42.698;23.350;2023-07-13T00:46:41;6.90;;;5.68;;
78893;SDS011;68282;42.698;23.350;2023-07-13T00:49:08;9.20;;;6.65;;
78893;SDS011;68282;42.698;23.350;2023-07-13T00:51:38;8.77;;;6.30;;
78893;SDS011;68282;42.698;23.350;2023-07-13T00:54:12;8.65;;;6.20;;
78893;SDS011;68282;42.698;23.350;2023-07-13T00:56:42;11.00;;;7.35;;
78893;SDS011;68282;42.698;23.350;2023-07-13T00:59:10;11.50;;;6.95;;
78893;SDS011;68282;42.698;23.350;2023-07-13T01:01:38;9.52;;;6.57;;
78893;SDS011;68282;42.698;23.350;2023-07-13T01:04:04;10.07;;;6.63;;
78893;SDS011;68282;42.698;23.350;2023-07-13T01:08:58;10.68;;;6.85;;
78893;SDS011;68282;42.698;23.350;2023-07-13T01:11:24;11.90;;;6.80;;
78893;SDS011;68282;42.698;23.350;2023-07-13T01:13:51;9.27;;;6.05;;
78893;SDS011;68282;42.698;23.350;2023-07-13T01:16:23;9.85;;;6.22;;
78893;SDS011;68282;42.698;23.350;2023-07-13T01:18:52;12.45;;;6.85;;
78893;SDS011;68282;42.698;23.350;2023-07-13T01:21:17;10.18;;;7.05;;
78893;SDS011;68282;42.698;23.350;2023-07-13T01:23:44;10.02;;;6.20;;
78893;SDS011;68282;42.698;23.350;2023-07-13T01:26:10;9.40;;;6.57;;
78893;SDS011;68282;42.698;23.350;2023-07-13T01:28:36;9.38;;;6.57;;
78893;SDS011;68282;42.698;23.350;2023-07-13T01:31:02;9.15;;;6.90;;
78893;SDS011;68282;42.698;23.350;2023-07-13T01:33:29;8.82;;;7.18;;
78893;SDS011;68282;42.698;23.350;2023-07-13T01:35:54;10.45;;;6.45;;
78893;SDS011;68282;42.698;23.350;2023-07-13T01:38:23;11.60;;;6.97;;
78893;SDS011;68282;42.698;23.350;2023-07-13T01:40:49;11.75;;;6.65;;
78893;SDS011;68282;42.698;23.350;2023-07-13T01:43:15;10.38;;;6.57;;
78893;SDS011;68282;42.698;23.350;2023-07-13T01:45:41;10.18;;;6.68;;
78893;SDS011;68282;42.698;23.350;2023-07-13T01:48:08;13.13;;;6.63;;
78893;SDS011;68282;42.698;23.350;2023-07-13T01:50:34;9.15;;;7.10;;
78893;SDS011;68282;42.698;23.350;2023-07-13T01:53:00;9.80;;;6.45;;
78893;SDS011;68282;42.698;23.350;2023-07-13T01:55:25;11.43;;;7.20;;
78893;SDS011;68282;42.698;23.350;2023-07-13T01:57:51;9.77;;;6.75;;
78893;SDS011;68282;42.698;23.350;2023-07-13T02:00:16;11.93;;;6.75;;
78893;SDS011;68282;42.698;23.350;2023-07-13T02:02:43;10.48;;;6.80;;
78893;SDS011;68282;42.698;23.350;2023-07-13T02:05:09;10.45;;;7.07;;
78893;SDS011;68282;42.698;23.350;2023-07-13T02:07:34;9.85;;;6.63;;
78893;SDS011;68282;42.698;23.350;2023-07-13T02:10:00;11.95;;;7.60;;
78893;SDS011;68282;42.698;23.350;2023-07-13T02:12:25;14.73;;;6.47;;
78893;SDS011;68282;42.698;23.350;2023-07-13T02:14:50;7.97;;;6.00;;
78893;SDS011;68282;42.698;23.350;2023-07-13T02:17:16;9.52;;;7.50;;
78893;SDS011;68282;42.698;23.350;2023-07-13T02:19:41;10.43;;;7.47;;
78893;SDS011;68282;42.698;23.350;2023-07-13T02:22:07;9.73;;;7.00;;
78893;SDS011;68282;42.698;23.350;2023-07-13T02:24:32;9.00;;;7.18;;
78893;SDS011;68282;42.698;23.350;2023-07-13T02:26:59;9.18;;;7.03;;
78893;SDS011;68282;42.698;23.350;2023-07-13T02:29:25;9.27;;;7.30;;
78893;SDS011;68282;42.698;23.350;2023-07-13T02:31:50;10.68;;;6.90;;
78893;SDS011;68282;42.698;23.350;2023-07-13T02:34:15;8.77;;;7.05;;
78893;SDS011;68282;42.698;23.350;2023-07-13T02:36:41;9.60;;;6.80;;
78893;SDS011;68282;42.698;23.350;2023-07-13T02:39:07;9.85;;;7.70;;
78893;SDS011;68282;42.698;23.350;2023-07-13T02:41:32;8.48;;;7.22;;
78893;SDS011;68282;42.698;23.350;2023-07-13T02:43:58;8.25;;;6.43;;
78893;SDS011;68282;42.698;23.350;2023-07-13T02:46:35;9.65;;;7.30;;
78893;SDS011;68282;42.698;23.350;2023-07-13T02:49:02;10.20;;;7.55;;
78893;SDS011;68282;42.698;23.350;2023-07-13T02:51:28;7.57;;;6.03;;
78893;SDS011;68282;42.698;23.350;2023-07-13T02:53:53;10.63;;;6.75;;
78893;SDS011;68282;42.698;23.350;2023-07-13T02:56:23;12.63;;;7.70;;
78893;SDS011;68282;42.698;23.350;2023-07-13T02:58:50;11.50;;;7.10;;
78893;SDS011;68282;42.698;23.350;2023-07-13T03:01:16;8.90;;;7.03;;
78893;SDS011;68282;42.698;23.350;2023-07-13T03:03:44;9.20;;;7.07;;
78893;SDS011;68282;42.698;23.350;2023-07-13T03:06:13;9.45;;;6.90;;
78893;SDS011;68282;42.698;23.350;2023-07-13T03:08:39;9.02;;;6.30;;
78893;SDS011;68282;42.698;23.350;2023-07-13T03:11:09;10.70;;;7.45;;
78893;SDS011;68282;42.698;23.350;2023-07-13T03:13:37;11.73;;;7.15;;
78893;SDS011;68282;42.698;23.350;2023-07-13T03:16:03;9.38;;;6.93;;
78893;SDS011;68282;42.698;23.350;2023-07-13T03:18:29;12.50;;;6.85;;
78893;SDS011;68282;42.698;23.350;2023-07-13T03:20:55;10.10;;;7.32;;
78893;SDS011;68282;42.698;23.350;2023-07-13T03:23:21;10.80;;;6.70;;
78893;SDS011;68282;42.698;23.350;2023-07-13T03:25:47;13.27;;;7.68;;
78893;SDS011;68282;42.698;23.350;2023-07-13T03:28:13;9.85;;;6.68;;
78893;SDS011;68282;42.698;23.350;2023-07-13T03:30:40;11.80;;;7.95;;
78893;SDS011;68282;42.698;23.350;2023-07-13T03:33:06;11.27;;;7.50;;
78893;SDS011;68282;42.698;23.350;2023-07-13T03:35:35;15.30;;;7.25;;
78893;SDS011;68282;42.698;23.350;2023-07-13T03:38:00;11.77;;;7.15;;
78893;SDS011;68282;42.698;23.350;2023-07-13T03:40:27;10.02;;;7.25;;
78893;SDS011;68282;42.698;23.350;2023-07-13T03:42:53;9.73;;;7.13;;
78893;SDS011;68282;42.698;23.350;2023-07-13T03:45:18;11.40;;;8.05;;
78893;SDS011;68282;42.698;23.350;2023-07-13T03:47:44;10.43;;;7.85;;
78893;SDS011;68282;42.698;23.350;2023-07-13T03:50:10;9.25;;;7.80;;
78893;SDS011;68282;42.698;23.350;2023-07-13T03:52:36;10.15;;;7.18;;
78893;SDS011;68282;42.698;23.350;2023-07-13T03:55:01;15.85;;;7.43;;
78893;SDS011;68282;42.698;23.350;2023-07-13T03:57:27;13.25;;;7.95;;
78893;SDS011;68282;42.698;23.350;2023-07-13T03:59:52;15.02;;;7.60;;
78893;SDS011;68282;42.698;23.350;2023-07-13T04:02:18;9.10;;;6.82;;
78893;SDS011;68282;42.698;23.350;2023-07-13T04:04:43;15.57;;;7.10;;
78893;SDS011;68282;42.698;23.350;2023-07-13T04:07:09;8.90;;;7.25;;
78893;SDS011;68282;42.698;23.350;2023-07-13T04:09:35;12.75;;;8.13;;
78893;SDS011;68282;42.698;23.350;2023-07-13T04:12:01;10.90;;;7.60;;
78893;SDS011;68282;42.698;23.350;2023-07-13T04:14:26;9.68;;;7.38;;
78893;SDS011;68282;42.698;23.350;2023-07-13T04:16:52;14.32;;;8.02;;
78893;SDS011;68282;42.698;23.350;2023-07-13T04:19:19;10.73;;;7.47;;
78893;SDS011;68282;42.698;23.350;2023-07-13T04:21:45;12.00;;;7.70;;
78893;SDS011;68282;42.698;23.350;2023-07-13T04:24:11;11.57;;;7.80;;
78893;SDS011;68282;42.698;23.350;2023-07-13T04:26:37;11.65;;;7.68;;
78893;SDS011;68282;42.698;23.350;2023-07-13T04:29:03;11.32;;;8.82;;
78893;SDS011;68282;42.698;23.350;2023-07-13T04:31:29;10.05;;;7.82;;
78893;SDS011;68282;42.698;23.350;2023-07-13T04:33:55;13.15;;;8.20;;
78893;SDS011;68282;42.698;23.350;2023-07-13T04:36:21;10.05;;;8.32;;
78893;SDS011;68282;42.698;23.350;2023-07-13T04:38:46;14.95;;;8.10;;
78893;SDS011;68282;42.698;23.350;2023-07-13T04:41:12;12.43;;;8.55;;
78893;SDS011;68282;42.698;23.350;2023-07-13T04:43:38;12.10;;;9.90;;
78893;SDS011;68282;42.698;23.350;2023-07-13T04:46:05;10.38;;;8.07;;
78893;SDS011;68282;42.698;23.350;2023-07-13T04:48:38;11.45;;;7.57;;
78893;SDS011;68282;42.698;23.350;2023-07-13T04:51:04;12.50;;;7.90;;
78893;SDS011;68282;42.698;23.350;2023-07-13T04:53:29;12.65;;;8.48;;
78893;SDS011;68282;42.698;23.350;2023-07-13T04:55:55;14.95;;;9.57;;
78893;SDS011;68282;42.698;23.350;2023-07-13T04:58:21;19.15;;;9.80;;
78893;SDS011;68282;42.698;23.350;2023-07-13T05:00:48;11.27;;;8.77;;
78893;SDS011;68282;42.698;23.350;2023-07-13T05:03:13;13.38;;;10.00;;
78893;SDS011;68282;42.698;23.350;2023-07-13T05:05:39;10.63;;;8.40;;
78893;SDS011;68282;42.698;23.350;2023-07-13T05:08:04;14.70;;;9.43;;
78893;SDS011;68282;42.698;23.350;2023-07-13T05:10:30;11.98;;;8.93;;
78893;SDS011;68282;42.698;23.350;2023-07-13T05:12:55;13.15;;;9.07;;
78893;SDS011;68282;42.698;23.350;2023-07-13T05:15:21;18.23;;;9.88;;
78893;SDS011;68282;42.698;23.350;2023-07-13T05:17:48;16.75;;;9.50;;
78893;SDS011;68282;42.698;23.350;2023-07-13T05:20:15;14.98;;;9.88;;
78893;SDS011;68282;42.698;23.350;2023-07-13T05:22:42;16.02;;;10.15;;
78893;SDS011;68282;42.698;23.350;2023-07-13T05:25:08;19.88;;;10.63;;
78893;SDS011;68282;42.698;23.350;2023-07-13T05:27:35;14.80;;;9.52;;
78893;SDS011;68282;42.698;23.350;2023-07-13T05:30:01;16.65;;;10.20;;
78893;SDS011;68282;42.698;23.350;2023-07-13T05:32:27;15.48;;;9.85;;
78893;SDS011;68282;42.698;23.350;2023-07-13T05:34:53;14.00;;;9.15;;
78893;SDS011;68282;42.698;23.350;2023-07-13T05:37:18;13.35;;;9.70;;
78893;SDS011;68282;42.698;23.350;2023-07-13T05:39:44;15.02;;;10.60;;
78893;SDS011;68282;42.698;23.350;2023-07-13T05:42:09;14.85;;;9.07;;
78893;SDS011;68282;42.698;23.350;2023-07-13T05:44:34;12.95;;;9.70;;
78893;SDS011;68282;42.698;23.350;2023-07-13T05:47:00;17.13;;;10.13;;
78893;SDS011;68282;42.698;23.350;2023-07-13T05:49:26;15.50;;;10.55;;
78893;SDS011;68282;42.698;23.350;2023-07-13T05:51:51;17.52;;;10.25;;
78893;SDS011;68282;42.698;23.350;2023-07-13T05:54:16;14.88;;;8.50;;
78893;SDS011;68282;42.698;23.350;2023-07-13T05:56:42;12.70;;;9.27;;
78893;SDS011;68282;42.698;23.350;2023-07-13T05:59:07;17.00;;;9.80;;
78893;SDS011;68282;42.698;23.350;2023-07-13T06:01:33;14.50;;;9.10;;
78893;SDS011;68282;42.698;23.350;2023-07-13T06:03:58;11.15;;;9.25;;
78893;SDS011;68282;42.698;23.350;2023-07-13T06:06:24;11.55;;;9.35;;
78893;SDS011;68282;42.698;23.350;2023-07-13T06:08:49;12.50;;;9.55;;
78893;SDS011;68282;42.698;23.350;2023-07-13T06:11:16;12.07;;;9.60;;
78893;SDS011;68282;42.698;23.350;2023-07-13T06:13:44;13.15;;;9.48;;
78893;SDS011;68282;42.698;23.350;2023-07-13T06:16:11;13.75;;;10.25;;
78893;SDS011;68282;42.698;23.350;2023-07-13T06:18:40;11.18;;;8.85;;
78893;SDS011;68282;42.698;23.350;2023-07-13T06:21:16;12.32;;;8.75;;
78893;SDS011;68282;42.698;23.350;2023-07-13T06:23:44;14.88;;;9.40;;
78893;SDS011;68282;42.698;23.350;2023-07-13T06:26:12;15.10;;;9.38;;
78893;SDS011;68282;42.698;23.350;2023-07-13T06:28:38;14.25;;;9.77;;
78893;SDS011;68282;42.698;23.350;2023-07-13T06:31:05;13.27;;;9.52;;
78893;SDS011;68282;42.698;23.350;2023-07-13T06:33:33;21.88;;;10.57;;
78893;SDS011;68282;42.698;23.350;2023-07-13T06:35:58;14.70;;;10.40;;
78893;SDS011;68282;42.698;23.350;2023-07-13T06:38:24;19.85;;;10.90;;
78893;SDS011;68282;42.698;23.350;2023-07-13T06:40:49;18.13;;;10.57;;
78893;SDS011;68282;42.698;23.350;2023-07-13T06:43:15;15.98;;;10.80;;
78893;SDS011;68282;42.698;23.350;2023-07-13T06:45:41;13.25;;;9.20;;
78893;SDS011;68282;42.698;23.350;2023-07-13T06:48:10;11.52;;;9.35;;
78893;SDS011;68282;42.698;23.350;2023-07-13T06:50:36;16.02;;;8.63;;
78893;SDS011;68282;42.698;23.350;2023-07-13T06:53:02;13.35;;;8.75;;
78893;SDS011;68282;42.698;23.350;2023-07-13T06:55:27;14.52;;;9.73;;
78893;SDS011;68282;42.698;23.350;2023-07-13T06:57:53;13.60;;;9.38;;
78893;SDS011;68282;42.698;23.350;2023-07-13T07:00:18;12.70;;;9.18;;
78893;SDS011;68282;42.698;23.350;2023-07-13T07:02:44;12.68;;;9.77;;
78893;SDS011;68282;42.698;23.350;2023-07-13T07:05:09;15.05;;;9.32;;
78893;SDS011;68282;42.698;23.350;2023-07-13T07:07:35;15.27;;;9.15;;
78893;SDS011;68282;42.698;23.350;2023-07-13T07:10:00;13.45;;;10.25;;
78893;SDS011;68282;42.698;23.350;2023-07-13T07:12:26;12.57;;;9.63;;
78893;SDS011;68282;42.698;23.350;2023-07-13T07:14:51;13.35;;;9.65;;
78893;SDS011;68282;42.698;23.350;2023-07-13T07:17:18;12.27;;;8.50;;
78893;SDS011;68282;42.698;23.350;2023-07-13T07:19:43;10.98;;;8.27;;
78893;SDS011;68282;42.698;23.350;2023-07-13T07:22:09;13.90;;;8.65;;
78893;SDS011;68282;42.698;23.350;2023-07-13T07:24:34;16.75;;;9.57;;
78893;SDS011;68282;42.698;23.350;2023-07-13T07:27:00;11.45;;;8.57;;
78893;SDS011;68282;42.698;23.350;2023-07-13T07:29:25;17.83;;;8.52;;
78893;SDS011;68282;42.698;23.350;2023-07-13T07:31:52;16.23;;;8.65;;
78893;SDS011;68282;42.698;23.350;2023-07-13T07:34:18;12.00;;;8.80;;
78893;SDS011;68282;42.698;23.350;2023-07-13T07:36:44;12.73;;;9.05;;
78893;SDS011;68282;42.698;23.350;2023-07-13T07:39:09;10.68;;;8.50;;
78893;SDS011;68282;42.698;23.350;2023-07-13T07:41:35;11.00;;;8.40;;
78893;SDS011;68282;42.698;23.350;2023-07-13T07:44:00;13.15;;;8.68;;
78893;SDS011;68282;42.698;23.350;2023-07-13T07:46:26;11.68;;;8.70;;
78893;SDS011;68282;42.698;23.350;2023-07-13T07:48:51;11.98;;;8.30;;
78893;SDS011;68282;42.698;23.350;2023-07-13T07:51:16;11.60;;;8.43;;
78893;SDS011;68282;42.698;23.350;2023-07-13T07:53:42;13.15;;;8.38;;
78893;SDS011;68282;42.698;23.350;2023-07-13T07:56:07;11.45;;;7.63;;
78893;SDS011;68282;42.698;23.350;2023-07-13T07:58:35;12.70;;;8.80;;
78893;SDS011;68282;42.698;23.350;2023-07-13T08:01:04;11.27;;;8.98;;
78893;SDS011;68282;42.698;23.350;2023-07-13T08:03:30;9.23;;;8.25;;
78893;SDS011;68282;42.698;23.350;2023-07-13T08:05:56;15.43;;;8.32;;
78893;SDS011;68282;42.698;23.350;2023-07-13T08:08:21;14.68;;;10.05;;
78893;SDS011;68282;42.698;23.350;2023-07-13T08:10:47;11.48;;;8.38;;
78893;SDS011;68282;42.698;23.350;2023-07-13T08:13:13;12.70;;;9.07;;
78893;SDS011;68282;42.698;23.350;2023-07-13T08:15:38;9.73;;;8.05;;
78893;SDS011;68282;42.698;23.350;2023-07-13T08:18:05;11.57;;;7.45;;
78893;SDS011;68282;42.698;23.350;2023-07-13T08:20:31;12.57;;;8.82;;
78893;SDS011;68282;42.698;23.350;2023-07-13T08:22:56;14.85;;;8.95;;
78893;SDS011;68282;42.698;23.350;2023-07-13T08:25:22;11.00;;;8.52;;
78893;SDS011;68282;42.698;23.350;2023-07-13T08:27:48;12.18;;;9.10;;
78893;SDS011;68282;42.698;23.350;2023-07-13T08:30:13;13.90;;;9.55;;
78893;SDS011;68282;42.698;23.350;2023-07-13T08:32:39;13.45;;;8.85;;
78893;SDS011;68282;42.698;23.350;2023-07-13T08:35:05;13.75;;;8.55;;
78893;SDS011;68282;42.698;23.350;2023-07-13T08:37:30;12.68;;;8.23;;
78893;SDS011;68282;42.698;23.350;2023-07-13T08:39:56;14.18;;;8.45;;
78893;SDS011;68282;42.698;23.350;2023-07-13T08:42:42;11.45;;;8.55;;
78893;SDS011;68282;42.698;23.350;2023-07-13T08:47:52;12.38;;;8.02;;
78893;SDS011;68282;42.698;23.350;2023-07-13T08:50:24;11.35;;;8.88;;
78893;SDS011;68282;42.698;23.350;2023-07-13T08:52:53;15.50;;;8.60;;
78893;SDS011;68282;42.698;23.350;2023-07-13T08:55:21;13.48;;;8.38;;
78893;SDS011;68282;42.698;23.350;2023-07-13T08:58:10;13.40;;;8.20;;
78893;SDS011;68282;42.698;23.350;2023-07-13T09:03:07;11.13;;;7.95;;
78893;SDS011;68282;42.698;23.350;2023-07-13T09:05:49;12.82;;;8.60;;
78893;SDS011;68282;42.698;23.350;2023-07-13T09:16:41;10.00;;;8.75;;
78893;SDS011;68282;42.698;23.350;2023-07-13T09:19:11;10.18;;;8.38;;
78893;SDS011;68282;42.698;23.350;2023-07-13T09:21:44;11.80;;;8.32;;
78893;SDS011;68282;42.698;23.350;2023-07-13T09:27:01;11.45;;;8.60;;
78893;SDS011;68282;42.698;23.350;2023-07-13T09:29:30;12.48;;;9.13;;
78893;SDS011;68282;42.698;23.350;2023-07-13T09:32:01;15.15;;;8.20;;
78893;SDS011;68282;42.698;23.350;2023-07-13T09:34:29;15.45;;;9.00;;
78893;SDS011;68282;42.698;23.350;2023-07-13T09:36:57;13.43;;;8.85;;
78893;SDS011;68282;42.698;23.350;2023-07-13T09:39:25;14.70;;;8.93;;
78893;SDS011;68282;42.698;23.350;2023-07-13T09:42:06;12.30;;;8.55;;
78893;SDS011;68282;42.698;23.350;2023-07-13T09:44:44;14.02;;;9.25;;
78893;SDS011;68282;42.698;23.350;2023-07-13T09:47:19;12.60;;;9.20;;
78893;SDS011;68282;42.698;23.350;2023-07-13T09:49:54;11.55;;;9.00;;
78893;SDS011;68282;42.698;23.350;2023-07-13T09:52:27;15.52;;;9.18;;
78893;SDS011;68282;42.698;23.350;2023-07-13T09:55:03;10.68;;;8.90;;
78893;SDS011;68282;42.698;23.350;2023-07-13T09:57:29;13.68;;;9.70;;
78893;SDS011;68282;42.698;23.350;2023-07-13T09:59:55;13.90;;;8.43;;
78893;SDS011;68282;42.698;23.350;2023-07-13T10:05:23;10.70;;;7.75;;
78893;SDS011;68282;42.698;23.350;2023-07-13T10:07:44;13.25;;;7.90;;
78893;SDS011;68282;42.698;23.350;2023-07-13T10:10:14;9.40;;;8.18;;
78893;SDS011;68282;42.698;23.350;2023-07-13T10:12:46;14.00;;;7.75;;
78893;SDS011;68282;42.698;23.350;2023-07-13T10:15:17;12.50;;;7.80;;
78893;SDS011;68282;42.698;23.350;2023-07-13T10:17:45;9.52;;;6.78;;
78893;SDS011;68282;42.698;23.350;2023-07-13T10:20:11;10.13;;;7.93;;
78893;SDS011;68282;42.698;23.350;2023-07-13T10:22:45;14.13;;;8.27;;
78893;SDS011;68282;42.698;23.350;2023-07-13T10:25:17;12.73;;;6.72;;
78893;SDS011;68282;42.698;23.350;2023-07-13T10:27:45;12.73;;;6.40;;
78893;SDS011;68282;42.698;23.350;2023-07-13T10:30:19;8.52;;;6.00;;
78893;SDS011;68282;42.698;23.350;2023-07-13T10:32:50;10.10;;;5.38;;
78893;SDS011;68282;42.698;23.350;2023-07-13T10:35:17;10.32;;;5.30;;
78893;SDS011;68282;42.698;23.350;2023-07-13T10:40:23;35.17;;;29.08;;
78893;SDS011;68282;42.698;23.350;2023-07-13T10:42:57;18.45;;;12.93;;
78893;SDS011;68282;42.698;23.350;2023-07-13T10:45:33;22.48;;;19.45;;
78893;SDS011;68282;42.698;23.350;2023-07-13T10:48:01;19.40;;;8.82;;
78893;SDS011;68282;42.698;23.350;2023-07-13T10:50:28;15.82;;;11.75;;
78893;SDS011;68282;42.698;23.350;2023-07-13T10:53:01;6.70;;;4.45;;
78893;SDS011;68282;42.698;23.350;2023-07-13T11:01:12;8.07;;;5.18;;
78893;SDS011;68282;42.698;23.350;2023-07-13T11:03:50;8.50;;;5.40;;
78893;SDS011;68282;42.698;23.350;2023-07-13T11:08:54;10.15;;;5.13;;
78893;SDS011;68282;42.698;23.350;2023-07-13T11:18:41;10.38;;;5.22;;
78893;SDS011;68282;42.698;23.350;2023-07-13T11:21:28;8.18;;;4.85;;
78893;SDS011;68282;42.698;23.350;2023-07-13T11:24:14;7.85;;;5.40;;
78893;SDS011;68282;42.698;23.350;2023-07-13T11:31:56;9.65;;;5.20;;
78893;SDS011;68282;42.698;23.350;2023-07-13T11:34:27;10.27;;;5.38;;
78893;SDS011;68282;42.698;23.350;2023-07-13T11:36:56;6.97;;;5.30;;
78893;SDS011;68282;42.698;23.350;2023-07-13T11:41:56;9.57;;;5.47;;
78893;SDS011;68282;42.698;23.350;2023-07-13T11:44:26;6.60;;;5.20;;
78893;SDS011;68282;42.698;23.350;2023-07-13T11:46:53;9.93;;;4.82;;
78893;SDS011;68282;42.698;23.350;2023-07-13T11:49:24;11.25;;;6.32;;
78893;SDS011;68282;42.698;23.350;2023-07-13T11:51:52;7.78;;;5.55;;
78893;SDS011;68282;42.698;23.350;2023-07-13T11:56:46;14.73;;;6.32;;
78893;SDS011;68282;42.698;23.350;2023-07-13T11:59:12;8.07;;;5.75;;
78893;SDS011;68282;42.698;23.350;2023-07-13T12:01:43;8.48;;;5.55;;
78893;SDS011;68282;42.698;23.350;2023-07-13T12:04:26;7.78;;;5.38;;
78893;SDS011;68282;42.698;23.350;2023-07-13T12:07:07;9.35;;;6.13;;
78893;SDS011;68282;42.698;23.350;2023-07-13T12:09:40;7.28;;;5.72;;
78893;SDS011;68282;42.698;23.350;2023-07-13T12:12:28;8.00;;;5.45;;
78893;SDS011;68282;42.698;23.350;2023-07-13T12:14:54;9.30;;;5.70;;
78893;SDS011;68282;42.698;23.350;2023-07-13T12:17:22;9.60;;;5.57;;
78893;SDS011;68282;42.698;23.350;2023-07-13T12:19:51;7.32;;;5.10;;
78893;SDS011;68282;42.698;23.350;2023-07-13T12:22:20;6.95;;;5.63;;
78893;SDS011;68282;42.698;23.350;2023-07-13T12:24:46;9.00;;;5.82;;
78893;SDS011;68282;42.698;23.350;2023-07-13T12:27:21;9.45;;;6.32;;
78893;SDS011;68282;42.698;23.350;2023-07-13T12:29:57;12.30;;;5.28;;
78893;SDS011;68282;42.698;23.350;2023-07-13T12:32:24;9.15;;;5.63;;
78893;SDS011;68282;42.698;23.350;2023-07-13T12:34:52;9.20;;;5.50;;
78893;SDS011;68282;42.698;23.350;2023-07-13T12:37:19;9.70;;;5.35;;
78893;SDS011;68282;42.698;23.350;2023-07-13T12:39:45;9.85;;;5.55;;
78893;SDS011;68282;42.698;23.350;2023-07-13T12:44:48;11.23;;;5.30;;
78893;SDS011;68282;42.698;23.350;2023-07-13T12:47:14;8.43;;;5.63;;
78893;SDS011;68282;42.698;23.350;2023-07-13T12:49:42;7.10;;;4.75;;
78893;SDS011;68282;42.698;23.350;2023-07-13T12:52:32;8.20;;;5.22;;
78893;SDS011;68282;42.698;23.350;2023-07-13T12:55:03;14.15;;;5.68;;
78893;SDS011;68282;42.698;23.350;2023-07-13T12:57:38;12.80;;;5.30;;
78893;SDS011;68282;42.698;23.350;2023-07-13T13:00:13;10.85;;;5.30;;
78893;SDS011;68282;42.698;23.350;2023-07-13T13:02:44;14.93;;;5.72;;
78893;SDS011;68282;42.698;23.350;2023-07-13T13:05:12;9.30;;;5.07;;
78893;SDS011;68282;42.698;23.350;2023-07-13T13:07:39;7.53;;;5.40;;
78893;SDS011;68282;42.698;23.350;2023-07-13T13:10:11;9.23;;;5.35;;
78893;SDS011;68282;42.698;23.350;2023-07-13T13:12:37;8.43;;;4.95;;
78893;SDS011;68282;42.698;23.350;2023-07-13T13:15:02;7.38;;;5.40;;
78893;SDS011;68282;42.698;23.350;2023-07-13T13:17:30;10.85;;;5.18;;
78893;SDS011;68282;42.698;23.350;2023-07-13T13:19:56;10.77;;;4.93;;
78893;SDS011;68282;42.698;23.350;2023-07-13T13:22:22;9.68;;;5.15;;
78893;SDS011;68282;42.698;23.350;2023-07-13T13:24:48;9.73;;;4.95;;
78893;SDS011;68282;42.698;23.350;2023-07-13T13:27:21;6.80;;;5.22;;
78893;SDS011;68282;42.698;23.350;2023-07-13T13:29:48;10.77;;;5.03;;
78893;SDS011;68282;42.698;23.350;2023-07-13T13:32:17;9.68;;;5.03;;
78893;SDS011;68282;42.698;23.350;2023-07-13T13:34:43;8.77;;;4.90;;
78893;SDS011;68282;42.698;23.350;2023-07-13T13:37:21;12.93;;;5.10;;
78893;SDS011;68282;42.698;23.350;2023-07-13T13:39:48;9.23;;;5.07;;
78893;SDS011;68282;42.698;23.350;2023-07-13T13:42:18;10.02;;;5.00;;
78893;SDS011;68282;42.698;23.350;2023-07-13T13:44:46;9.27;;;4.75;;
78893;SDS011;68282;42.698;23.350;2023-07-13T13:47:19;9.90;;;5.28;;
78893;SDS011;68282;42.698;23.350;2023-07-13T13:49:51;15.50;;;5.40;;
78893;SDS011;68282;42.698;23.350;2023-07-13T13:52:16;11.20;;;4.75;;
78893;SDS011;68282;42.698;23.350;2023-07-13T13:54:43;8.80;;;4.85;;
78893;SDS011;68282;42.698;23.350;2023-07-13T13:57:08;10.38;;;4.80;;
78893;SDS011;68282;42.698;23.350;2023-07-13T13:59:34;10.82;;;5.18;;
78893;SDS011;68282;42.698;23.350;2023-07-13T14:02:07;8.02;;;4.60;;
78893;SDS011;68282;42.698;23.350;2023-07-13T14:04:47;8.93;;;5.00;;
78893;SDS011;68282;42.698;23.350;2023-07-13T14:07:15;5.72;;;4.70;;
78893;SDS011;68282;42.698;23.350;2023-07-13T14:09:41;8.13;;;4.78;;
78893;SDS011;68282;42.698;23.350;2023-07-13T14:12:08;7.40;;;5.00;;
78893;SDS011;68282;42.698;23.350;2023-07-13T14:14:36;7.47;;;4.90;;
78893;SDS011;68282;42.698;23.350;2023-07-13T14:17:03;11.05;;;5.45;;
78893;SDS011;68282;42.698;23.350;2023-07-13T14:19:29;8.50;;;4.82;;
78893;SDS011;68282;42.698;23.350;2023-07-13T14:21:54;9.30;;;4.90;;
78893;SDS011;68282;42.698;23.350;2023-07-13T14:24:19;11.23;;;4.22;;
78893;SDS011;68282;42.698;23.350;2023-07-13T14:26:46;9.80;;;5.10;;
78893;SDS011;68282;42.698;23.350;2023-07-13T14:29:16;10.85;;;5.10;;
78893;SDS011;68282;42.698;23.350;2023-07-13T14:31:43;8.25;;;5.07;;
78893;SDS011;68282;42.698;23.350;2023-07-13T14:34:10;8.07;;;4.75;;
78893;SDS011;68282;42.698;23.350;2023-07-13T14:36:40;7.88;;;5.05;;
78893;SDS011;68282;42.698;23.350;2023-07-13T14:39:21;7.18;;;4.30;;
78893;SDS011;68282;42.698;23.350;2023-07-13T14:41:51;11.70;;;5.63;;
78893;SDS011;68282;42.698;23.350;2023-07-13T14:44:24;9.48;;;5.47;;
78893;SDS011;68282;42.698;23.350;2023-07-13T14:46:51;10.55;;;5.20;;
78893;SDS011;68282;42.698;23.350;2023-07-13T14:51:57;10.93;;;4.70;;
78893;SDS011;68282;42.698;23.350;2023-07-13T14:54:29;9.30;;;4.95;;
78893;SDS011;68282;42.698;23.350;2023-07-13T14:56:54;8.65;;;5.47;;
78893;SDS011;68282;42.698;23.350;2023-07-13T14:59:20;10.02;;;5.30;;
78893;SDS011;68282;42.698;23.350;2023-07-13T15:01:46;10.50;;;5.40;;
78893;SDS011;68282;42.698;23.350;2023-07-13T15:04:13;6.68;;;5.25;;
78893;SDS011;68282;42.698;23.350;2023-07-13T15:09:26;9.68;;;5.40;;
78893;SDS011;68282;42.698;23.350;2023-07-13T15:11:54;9.25;;;4.72;;
78893;SDS011;68282;42.698;23.350;2023-07-13T15:14:20;11.93;;;5.53;;
78893;SDS011;68282;42.698;23.350;2023-07-13T15:16:46;7.72;;;5.72;;
78893;SDS011;68282;42.698;23.350;2023-07-13T15:26:33;8.23;;;5.18;;
78893;SDS011;68282;42.698;23.350;2023-07-13T15:28:58;8.05;;;5.00;;
78893;SDS011;68282;42.698;23.350;2023-07-13T15:31:25;8.93;;;5.03;;
78893;SDS011;68282;42.698;23.350;2023-07-13T15:33:55;7.57;;;5.30;;